Terminal Aerodrome Forecast
Issued by NWS Grand Forks, ND

Home | Current Version | Previous Version | Graphics & Text | Print | Product List | Glossary On
Versions: 1 2 3 4 5 6 7 8 9 10 11 12 13 14 15 16 17 18 19 20
364
FTUS43 KFGF 040930 AAB
TAFGFK
TAF AMD
KGFK 040930Z 0410/0506 17010KT 5SM -SN OVC007
      TEMPO 0410/0412 2SM -SN BR OVC005
     FM041300 21009KT P6SM OVC008
     FM041700 25009KT P6SM BKN010
     FM050200 22006KT P6SM BKN045=

USA.gov is the U.S. government's official web portal to all federal, state and local government web resources and services.